sensor_id;sensor_type;location;lat;lon;timestamp;temperature;humidity
9699;DHT22;10089;47.876;8.346;2022-07-22T00:02:09;17.20;99.90
9699;DHT22;10089;47.876;8.346;2022-07-22T00:04:35;17.10;99.90
9699;DHT22;10089;47.876;8.346;2022-07-22T00:07:00;17.00;99.90
9699;DHT22;10089;47.876;8.346;2022-07-22T00:09:26;17.00;99.90
9699;DHT22;10089;47.876;8.346;2022-07-22T00:11:52;17.00;99.90
9699;DHT22;10089;47.876;8.346;2022-07-22T00:14:18;17.00;99.90
9699;DHT22;10089;47.876;8.346;2022-07-22T00:16:43;17.00;99.90
9699;DHT22;10089;47.876;8.346;2022-07-22T00:19:09;17.00;99.90
9699;DHT22;10089;47.876;8.346;2022-07-22T00:21:35;16.90;99.90
9699;DHT22;10089;47.876;8.346;2022-07-22T00:24:01;16.90;99.90
9699;DHT22;10089;47.876;8.346;2022-07-22T00:26:26;16.90;99.90
9699;DHT22;10089;47.876;8.346;2022-07-22T00:28:52;16.90;99.90
9699;DHT22;10089;47.876;8.346;2022-07-22T00:31:18;16.90;99.90
9699;DHT22;10089;47.876;8.346;2022-07-22T00:33:44;16.90;99.90
9699;DHT22;10089;47.876;8.346;2022-07-22T00:36:09;16.80;99.90
9699;DHT22;10089;47.876;8.346;2022-07-22T00:38:35;16.70;99.90
9699;DHT22;10089;47.876;8.346;2022-07-22T00:41:01;16.70;99.90
9699;DHT22;10089;47.876;8.346;2022-07-22T00:43:27;16.60;99.90
9699;DHT22;10089;47.876;8.346;2022-07-22T00:45:53;16.60;99.90
9699;DHT22;10089;47.876;8.346;2022-07-22T00:48:18;16.50;99.90
9699;DHT22;10089;47.876;8.346;2022-07-22T00:50:45;16.40;99.90
9699;DHT22;10089;47.876;8.346;2022-07-22T00:53:20;16.40;99.90
9699;DHT22;10089;47.876;8.346;2022-07-22T00:55:45;16.40;99.90
9699;DHT22;10089;47.876;8.346;2022-07-22T00:58:11;16.60;99.90
9699;DHT22;10089;47.876;8.346;2022-07-22T01:00:37;16.50;99.90
9699;DHT22;10089;47.876;8.346;2022-07-22T01:03:03;16.40;99.90
9699;DHT22;10089;47.876;8.346;2022-07-22T01:05:28;16.40;99.90
9699;DHT22;10089;47.876;8.346;2022-07-22T01:07:54;16.40;99.90
9699;DHT22;10089;47.876;8.346;2022-07-22T01:10:20;16.40;99.90
9699;DHT22;10089;47.876;8.346;2022-07-22T01:12:46;16.30;99.90
9699;DHT22;10089;47.876;8.346;2022-07-22T01:15:12;16.30;99.90
9699;DHT22;10089;47.876;8.346;2022-07-22T01:17:38;16.30;99.90
9699;DHT22;10089;47.876;8.346;2022-07-22T01:20:05;16.30;99.90
9699;DHT22;10089;47.876;8.346;2022-07-22T01:22:31;16.30;99.90
9699;DHT22;10089;47.876;8.346;2022-07-22T01:24:57;16.40;99.90
9699;DHT22;10089;47.876;8.346;2022-07-22T01:27:23;16.30;99.90
9699;DHT22;10089;47.876;8.346;2022-07-22T01:29:49;16.40;99.90
9699;DHT22;10089;47.876;8.346;2022-07-22T01:32:15;16.30;99.90
9699;DHT22;10089;47.876;8.346;2022-07-22T01:34:41;16.30;99.90
9699;DHT22;10089;47.876;8.346;2022-07-22T01:37:09;16.30;99.90
9699;DHT22;10089;47.876;8.346;2022-07-22T01:39:35;16.20;99.90
9699;DHT22;10089;47.876;8.346;2022-07-22T01:42:01;16.10;99.90
9699;DHT22;10089;47.876;8.346;2022-07-22T01:44:26;16.10;99.90
9699;DHT22;10089;47.876;8.346;2022-07-22T01:46:52;16.10;99.90
9699;DHT22;10089;47.876;8.346;2022-07-22T01:49:19;16.10;99.90
9699;DHT22;10089;47.876;8.346;2022-07-22T01:51:46;16.10;99.90
9699;DHT22;10089;47.876;8.346;2022-07-22T01:54:12;16.10;99.90
9699;DHT22;10089;47.876;8.346;2022-07-22T01:56:38;16.10;99.90
9699;DHT22;10089;47.876;8.346;2022-07-22T01:59:04;16.00;99.90
9699;DHT22;10089;47.876;8.346;2022-07-22T02:01:29;16.00;99.90
9699;DHT22;10089;47.876;8.346;2022-07-22T02:03:55;16.00;99.90
9699;DHT22;10089;47.876;8.346;2022-07-22T02:06:21;15.90;99.90
9699;DHT22;10089;47.876;8.346;2022-07-22T02:08:47;15.90;99.90
9699;DHT22;10089;47.876;8.346;2022-07-22T02:11:13;15.80;99.90
9699;DHT22;10089;47.876;8.346;2022-07-22T02:13:38;15.80;99.90
9699;DHT22;10089;47.876;8.346;2022-07-22T02:16:04;15.80;99.90
9699;DHT22;10089;47.876;8.346;2022-07-22T02:18:30;15.80;99.90
9699;DHT22;10089;47.876;8.346;2022-07-22T02:20:56;15.80;99.90
9699;DHT22;10089;47.876;8.346;2022-07-22T02:23:22;15.80;99.90
9699;DHT22;10089;47.876;8.346;2022-07-22T02:25:47;15.80;99.90
9699;DHT22;10089;47.876;8.346;2022-07-22T02:28:13;15.80;99.90
9699;DHT22;10089;47.876;8.346;2022-07-22T02:30:39;15.90;99.90
9699;DHT22;10089;47.876;8.346;2022-07-22T02:33:05;15.80;99.90
9699;DHT22;10089;47.876;8.346;2022-07-22T02:35:31;15.90;99.90
9699;DHT22;10089;47.876;8.346;2022-07-22T02:37:57;15.90;99.90
9699;DHT22;10089;47.876;8.346;2022-07-22T02:40:22;15.90;99.90
9699;DHT22;10089;47.876;8.346;2022-07-22T02:42:48;15.80;99.90
9699;DHT22;10089;47.876;8.346;2022-07-22T02:45:14;15.80;99.90
9699;DHT22;10089;47.876;8.346;2022-07-22T02:47:51;15.80;99.90
9699;DHT22;10089;47.876;8.346;2022-07-22T02:50:17;15.80;99.90
9699;DHT22;10089;47.876;8.346;2022-07-22T02:52:43;15.90;99.90
9699;DHT22;10089;47.876;8.346;2022-07-22T02:55:09;15.90;99.90
9699;DHT22;10089;47.876;8.346;2022-07-22T02:57:35;15.80;99.90
9699;DHT22;10089;47.876;8.346;2022-07-22T03:00:01;15.80;99.90
9699;DHT22;10089;47.876;8.346;2022-07-22T03:02:27;15.80;99.90
9699;DHT22;10089;47.876;8.346;2022-07-22T03:04:52;15.70;99.90
9699;DHT22;10089;47.876;8.346;2022-07-22T03:07:18;15.80;99.90
9699;DHT22;10089;47.876;8.346;2022-07-22T03:09:44;15.80;99.90
9699;DHT22;10089;47.876;8.346;2022-07-22T03:12:10;15.80;99.90
9699;DHT22;10089;47.876;8.346;2022-07-22T03:14:36;15.70;99.90
9699;DHT22;10089;47.876;8.346;2022-07-22T03:17:02;15.70;99.90
9699;DHT22;10089;47.876;8.346;2022-07-22T03:19:28;15.70;99.90
9699;DHT22;10089;47.876;8.346;2022-07-22T03:21:54;15.70;99.90
9699;DHT22;10089;47.876;8.346;2022-07-22T03:24:19;15.60;99.90
9699;DHT22;10089;47.876;8.346;2022-07-22T03:26:45;15.50;99.90
9699;DHT22;10089;47.876;8.346;2022-07-22T03:29:11;15.50;99.90
9699;DHT22;10089;47.876;8.346;2022-07-22T03:31:37;15.40;99.90
9699;DHT22;10089;47.876;8.346;2022-07-22T03:34:03;15.40;99.90
9699;DHT22;10089;47.876;8.346;2022-07-22T03:36:29;15.40;99.90
9699;DHT22;10089;47.876;8.346;2022-07-22T03:38:55;15.40;99.90
9699;DHT22;10089;47.876;8.346;2022-07-22T03:41:21;15.40;99.90
9699;DHT22;10089;47.876;8.346;2022-07-22T03:43:47;15.40;99.90
9699;DHT22;10089;47.876;8.346;2022-07-22T03:46:13;15.30;99.90
9699;DHT22;10089;47.876;8.346;2022-07-22T03:48:39;15.30;99.90
9699;DHT22;10089;47.876;8.346;2022-07-22T03:51:05;15.30;99.90
9699;DHT22;10089;47.876;8.346;2022-07-22T03:53:32;15.30;99.90
9699;DHT22;10089;47.876;8.346;2022-07-22T03:55:59;15.30;99.90
9699;DHT22;10089;47.876;8.346;2022-07-22T03:58:25;15.20;99.90
9699;DHT22;10089;47.876;8.346;2022-07-22T04:00:52;15.30;99.90
9699;DHT22;10089;47.876;8.346;2022-07-22T04:03:18;15.20;99.90
9699;DHT22;10089;47.876;8.346;2022-07-22T04:05:44;15.20;99.90
9699;DHT22;10089;47.876;8.346;2022-07-22T04:08:11;15.30;99.90
9699;DHT22;10089;47.876;8.346;2022-07-22T04:10:37;15.30;99.90
9699;DHT22;10089;47.876;8.346;2022-07-22T04:13:04;15.40;99.90
9699;DHT22;10089;47.876;8.346;2022-07-22T04:15:30;15.40;99.90
9699;DHT22;10089;47.876;8.346;2022-07-22T04:17:56;15.40;99.90
9699;DHT22;10089;47.876;8.346;2022-07-22T04:20:22;15.40;99.90
9699;DHT22;10089;47.876;8.346;2022-07-22T04:22:47;15.40;99.90
9699;DHT22;10089;47.876;8.346;2022-07-22T04:25:13;15.40;99.90
9699;DHT22;10089;47.876;8.346;2022-07-22T04:27:40;15.40;99.90
9699;DHT22;10089;47.876;8.346;2022-07-22T04:30:06;15.40;99.90
9699;DHT22;10089;47.876;8.346;2022-07-22T04:32:32;15.40;99.90
9699;DHT22;10089;47.876;8.346;2022-07-22T04:34:58;15.50;99.90
9699;DHT22;10089;47.876;8.346;2022-07-22T04:37:24;15.50;99.90
9699;DHT22;10089;47.876;8.346;2022-07-22T04:39:50;15.50;99.90
9699;DHT22;10089;47.876;8.346;2022-07-22T04:42:15;15.50;99.90
9699;DHT22;10089;47.876;8.346;2022-07-22T04:44:41;15.50;99.90
9699;DHT22;10089;47.876;8.346;2022-07-22T04:47:10;15.60;99.90
9699;DHT22;10089;47.876;8.346;2022-07-22T04:49:36;15.60;99.90
9699;DHT22;10089;47.876;8.346;2022-07-22T04:52:02;15.60;99.90
9699;DHT22;10089;47.876;8.346;2022-07-22T04:54:28;15.70;99.90
9699;DHT22;10089;47.876;8.346;2022-07-22T04:56:54;15.80;99.90
9699;DHT22;10089;47.876;8.346;2022-07-22T04:59:20;15.80;99.90
9699;DHT22;10089;47.876;8.346;2022-07-22T05:01:45;15.90;99.90
9699;DHT22;10089;47.876;8.346;2022-07-22T05:04:11;15.90;99.90
9699;DHT22;10089;47.876;8.346;2022-07-22T05:06:37;16.10;99.90
9699;DHT22;10089;47.876;8.346;2022-07-22T05:09:03;16.20;99.90
9699;DHT22;10089;47.876;8.346;2022-07-22T05:11:29;16.30;99.90
9699;DHT22;10089;47.876;8.346;2022-07-22T05:13:55;16.50;99.90
9699;DHT22;10089;47.876;8.346;2022-07-22T05:16:21;16.80;99.90
9699;DHT22;10089;47.876;8.346;2022-07-22T05:18:47;17.20;99.90
9699;DHT22;10089;47.876;8.346;2022-07-22T05:21:12;17.70;99.90
9699;DHT22;10089;47.876;8.346;2022-07-22T05:23:38;18.40;99.90
9699;DHT22;10089;47.876;8.346;2022-07-22T05:26:04;18.90;99.90
9699;DHT22;10089;47.876;8.346;2022-07-22T05:28:30;19.40;99.90
9699;DHT22;10089;47.876;8.346;2022-07-22T05:30:56;19.80;99.90
9699;DHT22;10089;47.876;8.346;2022-07-22T05:33:22;20.10;99.90
9699;DHT22;10089;47.876;8.346;2022-07-22T05:35:48;20.30;99.90
9699;DHT22;10089;47.876;8.346;2022-07-22T05:38:14;20.70;99.90
9699;DHT22;10089;47.876;8.346;2022-07-22T05:40:40;21.20;99.90
9699;DHT22;10089;47.876;8.346;2022-07-22T05:43:06;21.30;99.90
9699;DHT22;10089;47.876;8.346;2022-07-22T05:45:32;21.80;99.90
9699;DHT22;10089;47.876;8.346;2022-07-22T05:47:57;22.10;99.90
9699;DHT22;10089;47.876;8.346;2022-07-22T05:50:23;22.10;99.90
9699;DHT22;10089;47.876;8.346;2022-07-22T05:52:49;22.70;99.90
9699;DHT22;10089;47.876;8.346;2022-07-22T05:55:15;23.00;99.90
9699;DHT22;10089;47.876;8.346;2022-07-22T05:57:41;23.10;99.90
9699;DHT22;10089;47.876;8.346;2022-07-22T06:00:07;23.60;99.90
9699;DHT22;10089;47.876;8.346;2022-07-22T06:02:33;23.50;99.90
9699;DHT22;10089;47.876;8.346;2022-07-22T06:04:59;23.10;99.90
9699;DHT22;10089;47.876;8.346;2022-07-22T06:07:26;23.20;99.90
9699;DHT22;10089;47.876;8.346;2022-07-22T06:09:53;22.90;99.90
9699;DHT22;10089;47.876;8.346;2022-07-22T06:12:19;23.30;99.90
9699;DHT22;10089;47.876;8.346;2022-07-22T06:14:44;23.40;99.90
9699;DHT22;10089;47.876;8.346;2022-07-22T06:17:12;23.90;99.90
9699;DHT22;10089;47.876;8.346;2022-07-22T06:19:38;22.70;99.90
9699;DHT22;10089;47.876;8.346;2022-07-22T06:22:04;23.50;99.90
9699;DHT22;10089;47.876;8.346;2022-07-22T06:24:30;24.00;99.90
9699;DHT22;10089;47.876;8.346;2022-07-22T06:26:56;23.50;99.90
9699;DHT22;10089;47.876;8.346;2022-07-22T06:29:22;24.30;99.90
9699;DHT22;10089;47.876;8.346;2022-07-22T06:31:48;24.70;99.90
9699;DHT22;10089;47.876;8.346;2022-07-22T06:34:14;24.60;99.90
9699;DHT22;10089;47.876;8.346;2022-07-22T06:36:40;24.30;99.90
9699;DHT22;10089;47.876;8.346;2022-07-22T06:39:05;24.00;99.90
9699;DHT22;10089;47.876;8.346;2022-07-22T06:41:31;24.70;99.90
9699;DHT22;10089;47.876;8.346;2022-07-22T06:43:57;24.80;99.90
9699;DHT22;10089;47.876;8.346;2022-07-22T06:46:23;24.90;99.90
9699;DHT22;10089;47.876;8.346;2022-07-22T06:48:49;24.90;99.90
9699;DHT22;10089;47.876;8.346;2022-07-22T06:51:14;25.40;99.90
9699;DHT22;10089;47.876;8.346;2022-07-22T06:53:41;25.50;99.90
9699;DHT22;10089;47.876;8.346;2022-07-22T06:56:07;25.30;99.90
9699;DHT22;10089;47.876;8.346;2022-07-22T06:58:33;25.10;99.90
9699;DHT22;10089;47.876;8.346;2022-07-22T07:00:59;25.50;99.90
9699;DHT22;10089;47.876;8.346;2022-07-22T07:03:24;25.30;99.90
9699;DHT22;10089;47.876;8.346;2022-07-22T07:05:51;25.80;99.90
9699;DHT22;10089;47.876;8.346;2022-07-22T07:08:17;25.60;99.90
9699;DHT22;10089;47.876;8.346;2022-07-22T07:10:43;26.00;99.90
9699;DHT22;10089;47.876;8.346;2022-07-22T07:13:09;25.00;99.90
9699;DHT22;10089;47.876;8.346;2022-07-22T07:15:35;25.00;99.90
9699;DHT22;10089;47.876;8.346;2022-07-22T07:18:01;26.00;99.90
9699;DHT22;10089;47.876;8.346;2022-07-22T07:20:28;26.10;99.90
9699;DHT22;10089;47.876;8.346;2022-07-22T07:22:54;26.30;99.90
9699;DHT22;10089;47.876;8.346;2022-07-22T07:25:20;26.50;99.90
9699;DHT22;10089;47.876;8.346;2022-07-22T07:27:46;26.40;99.90
9699;DHT22;10089;47.876;8.346;2022-07-22T07:30:12;26.70;99.90
9699;DHT22;10089;47.876;8.346;2022-07-22T07:32:40;26.90;99.90
9699;DHT22;10089;47.876;8.346;2022-07-22T07:35:06;26.60;99.90
9699;DHT22;10089;47.876;8.346;2022-07-22T07:37:33;27.00;99.90
9699;DHT22;10089;47.876;8.346;2022-07-22T07:39:59;26.90;99.90
9699;DHT22;10089;47.876;8.346;2022-07-22T07:42:25;27.10;99.90
9699;DHT22;10089;47.876;8.346;2022-07-22T07:44:51;27.00;99.90
9699;DHT22;10089;47.876;8.346;2022-07-22T07:47:18;27.40;99.90
9699;DHT22;10089;47.876;8.346;2022-07-22T07:49:48;27.10;99.90
9699;DHT22;10089;47.876;8.346;2022-07-22T07:52:15;27.10;99.90
9699;DHT22;10089;47.876;8.346;2022-07-22T07:54:41;27.10;99.90
9699;DHT22;10089;47.876;8.346;2022-07-22T07:57:08;27.00;99.90
9699;DHT22;10089;47.876;8.346;2022-07-22T07:59:36;26.50;99.90
9699;DHT22;10089;47.876;8.346;2022-07-22T08:02:03;26.90;99.90
9699;DHT22;10089;47.876;8.346;2022-07-22T08:04:29;27.30;99.90
9699;DHT22;10089;47.876;8.346;2022-07-22T08:06:55;27.80;99.90
9699;DHT22;10089;47.876;8.346;2022-07-22T08:09:21;27.70;99.90
9699;DHT22;10089;47.876;8.346;2022-07-22T08:11:46;28.10;99.90
9699;DHT22;10089;47.876;8.346;2022-07-22T08:14:12;27.50;99.90
9699;DHT22;10089;47.876;8.346;2022-07-22T08:16:38;27.60;99.90
9699;DHT22;10089;47.876;8.346;2022-07-22T08:19:04;27.70;99.90
9699;DHT22;10089;47.876;8.346;2022-07-22T08:21:30;28.00;99.90
9699;DHT22;10089;47.876;8.346;2022-07-22T08:23:56;28.50;99.90
9699;DHT22;10089;47.876;8.346;2022-07-22T08:26:22;28.40;99.90
9699;DHT22;10089;47.876;8.346;2022-07-22T08:28:47;27.20;99.90
9699;DHT22;10089;47.876;8.346;2022-07-22T08:31:13;27.50;99.90
9699;DHT22;10089;47.876;8.346;2022-07-22T08:33:39;27.90;99.90
9699;DHT22;10089;47.876;8.346;2022-07-22T08:36:05;27.50;99.90
9699;DHT22;10089;47.876;8.346;2022-07-22T08:38:31;27.90;99.90
9699;DHT22;10089;47.876;8.346;2022-07-22T08:40:58;28.00;99.90
9699;DHT22;10089;47.876;8.346;2022-07-22T08:43:26;28.30;99.90
9699;DHT22;10089;47.876;8.346;2022-07-22T08:45:52;28.30;99.90
9699;DHT22;10089;47.876;8.346;2022-07-22T08:48:18;27.90;99.90
9699;DHT22;10089;47.876;8.346;2022-07-22T08:50:45;28.40;99.90
9699;DHT22;10089;47.876;8.346;2022-07-22T08:53:13;28.80;99.90
9699;DHT22;10089;47.876;8.346;2022-07-22T08:55:43;28.70;99.00
9699;DHT22;10089;47.876;8.346;2022-07-22T08:58:10;28.90;99.40
9699;DHT22;10089;47.876;8.346;2022-07-22T09:00:36;29.20;99.30
9699;DHT22;10089;47.876;8.346;2022-07-22T09:05:43;28.50;99.00
9699;DHT22;10089;47.876;8.346;2022-07-22T09:08:09;28.30;96.70
9699;DHT22;10089;47.876;8.346;2022-07-22T09:10:36;28.60;94.90
9699;DHT22;10089;47.876;8.346;2022-07-22T09:13:04;29.10;95.20
9699;DHT22;10089;47.876;8.346;2022-07-22T09:15:33;29.10;94.00
9699;DHT22;10089;47.876;8.346;2022-07-22T09:18:03;29.00;93.80
9699;DHT22;10089;47.876;8.346;2022-07-22T09:20:31;29.00;93.80
9699;DHT22;10089;47.876;8.346;2022-07-22T09:22:57;28.50;93.80
9699;DHT22;10089;47.876;8.346;2022-07-22T09:25:33;27.70;95.20
9699;DHT22;10089;47.876;8.346;2022-07-22T09:33:10;28.10;95.40
9699;DHT22;10089;47.876;8.346;2022-07-22T09:35:37;27.70;95.80
9699;DHT22;10089;47.876;8.346;2022-07-22T09:38:06;28.00;94.40
9699;DHT22;10089;47.876;8.346;2022-07-22T09:40:35;28.30;93.60
9699;DHT22;10089;47.876;8.346;2022-07-22T09:43:06;28.20;94.10
9699;DHT22;10089;47.876;8.346;2022-07-22T09:45:33;28.80;94.10
9699;DHT22;10089;47.876;8.346;2022-07-22T09:48:00;29.90;93.20
9699;DHT22;10089;47.876;8.346;2022-07-22T09:50:27;30.70;90.40
9699;DHT22;10089;47.876;8.346;2022-07-22T09:52:55;30.90;88.80
9699;DHT22;10089;47.876;8.346;2022-07-22T09:55:23;30.90;85.00
9699;DHT22;10089;47.876;8.346;2022-07-22T09:57:51;30.80;82.80
9699;DHT22;10089;47.876;8.346;2022-07-22T10:00:20;29.20;86.30
9699;DHT22;10089;47.876;8.346;2022-07-22T10:02:55;29.20;86.20
9699;DHT22;10089;47.876;8.346;2022-07-22T10:05:30;29.40;84.50
9699;DHT22;10089;47.876;8.346;2022-07-22T10:07:57;29.70;87.20
9699;DHT22;10089;47.876;8.346;2022-07-22T10:10:27;29.80;86.20
9699;DHT22;10089;47.876;8.346;2022-07-22T10:12:55;30.10;85.30
9699;DHT22;10089;47.876;8.346;2022-07-22T10:15:23;30.80;83.30
9699;DHT22;10089;47.876;8.346;2022-07-22T10:18:00;30.30;81.90
9699;DHT22;10089;47.876;8.346;2022-07-22T10:20:27;29.80;84.20
9699;DHT22;10089;47.876;8.346;2022-07-22T10:22:58;30.20;81.80
9699;DHT22;10089;47.876;8.346;2022-07-22T10:25:28;29.80;84.90
9699;DHT22;10089;47.876;8.346;2022-07-22T10:28:05;30.50;82.90
9699;DHT22;10089;47.876;8.346;2022-07-22T10:30:36;30.20;80.80
9699;DHT22;10089;47.876;8.346;2022-07-22T10:35:35;30.40;81.30
9699;DHT22;10089;47.876;8.346;2022-07-22T10:38:06;31.10;79.60
9699;DHT22;10089;47.876;8.346;2022-07-22T10:40:47;30.20;75.90
9699;DHT22;10089;47.876;8.346;2022-07-22T10:43:14;30.00;74.20
9699;DHT22;10089;47.876;8.346;2022-07-22T10:45:44;29.90;78.20
9699;DHT22;10089;47.876;8.346;2022-07-22T10:56:37;29.40;78.50
9699;DHT22;10089;47.876;8.346;2022-07-22T10:59:09;29.00;80.30
9699;DHT22;10089;47.876;8.346;2022-07-22T11:01:37;30.20;82.70
9699;DHT22;10089;47.876;8.346;2022-07-22T11:04:08;30.70;76.70
9699;DHT22;10089;47.876;8.346;2022-07-22T11:06:34;30.70;74.10
9699;DHT22;10089;47.876;8.346;2022-07-22T11:09:06;31.00;76.70
9699;DHT22;10089;47.876;8.346;2022-07-22T11:11:32;30.60;74.80
9699;DHT22;10089;47.876;8.346;2022-07-22T11:13:59;29.80;76.10
9699;DHT22;10089;47.876;8.346;2022-07-22T11:16:26;30.90;76.10
9699;DHT22;10089;47.876;8.346;2022-07-22T11:19:01;31.00;74.40
9699;DHT22;10089;47.876;8.346;2022-07-22T11:21:32;31.00;73.70
9699;DHT22;10089;47.876;8.346;2022-07-22T11:24:00;30.60;71.70
9699;DHT22;10089;47.876;8.346;2022-07-22T11:26:44;30.40;72.70
9699;DHT22;10089;47.876;8.346;2022-07-22T11:29:18;31.30;75.10
9699;DHT22;10089;47.876;8.346;2022-07-22T11:31:50;31.40;71.70
9699;DHT22;10089;47.876;8.346;2022-07-22T11:34:16;30.40;70.90
9699;DHT22;10089;47.876;8.346;2022-07-22T11:36:44;29.90;72.50
9699;DHT22;10089;47.876;8.346;2022-07-22T11:39:13;30.40;73.00
9699;DHT22;10089;47.876;8.346;2022-07-22T11:41:42;30.20;63.00
9699;DHT22;10089;47.876;8.346;2022-07-22T11:44:09;30.40;64.90
9699;DHT22;10089;47.876;8.346;2022-07-22T11:46:44;31.10;59.70
9699;DHT22;10089;47.876;8.346;2022-07-22T11:49:14;30.30;61.80
9699;DHT22;10089;47.876;8.346;2022-07-22T11:51:40;30.00;63.40
9699;DHT22;10089;47.876;8.346;2022-07-22T11:54:06;29.90;61.10
9699;DHT22;10089;47.876;8.346;2022-07-22T11:56:32;30.60;62.80
9699;DHT22;10089;47.876;8.346;2022-07-22T11:58:59;31.30;60.50
9699;DHT22;10089;47.876;8.346;2022-07-22T12:01:31;30.80;60.60
9699;DHT22;10089;47.876;8.346;2022-07-22T12:04:06;31.30;62.10
9699;DHT22;10089;47.876;8.346;2022-07-22T12:06:34;30.70;59.80
9699;DHT22;10089;47.876;8.346;2022-07-22T12:09:06;30.10;62.20
9699;DHT22;10089;47.876;8.346;2022-07-22T12:11:40;30.40;62.80
9699;DHT22;10089;47.876;8.346;2022-07-22T12:14:12;31.10;60.20
9699;DHT22;10089;47.876;8.346;2022-07-22T12:16:39;31.20;59.00
9699;DHT22;10089;47.876;8.346;2022-07-22T12:19:12;30.70;59.50
9699;DHT22;10089;47.876;8.346;2022-07-22T12:21:57;31.40;62.20
9699;DHT22;10089;47.876;8.346;2022-07-22T12:24:36;31.90;60.60
9699;DHT22;10089;47.876;8.346;2022-07-22T12:27:07;30.80;57.60
9699;DHT22;10089;47.876;8.346;2022-07-22T12:32:09;30.30;57.80
9699;DHT22;10089;47.876;8.346;2022-07-22T12:34:41;30.20;61.40
9699;DHT22;10089;47.876;8.346;2022-07-22T12:37:18;30.90;60.60
9699;DHT22;10089;47.876;8.346;2022-07-22T12:40:08;31.50;58.30
9699;DHT22;10089;47.876;8.346;2022-07-22T12:42:40;31.00;57.50
9699;DHT22;10089;47.876;8.346;2022-07-22T12:45:15;31.20;57.40
9699;DHT22;10089;47.876;8.346;2022-07-22T12:47:52;31.00;57.40
9699;DHT22;10089;47.876;8.346;2022-07-22T12:52:57;31.50;55.80
9699;DHT22;10089;47.876;8.346;2022-07-22T12:55:24;32.00;55.80
9699;DHT22;10089;47.876;8.346;2022-07-22T12:57:50;32.00;55.10
9699;DHT22;10089;47.876;8.346;2022-07-22T13:00:21;31.40;53.40
9699;DHT22;10089;47.876;8.346;2022-07-22T13:02:48;31.00;53.60
9699;DHT22;10089;47.876;8.346;2022-07-22T13:05:14;30.90;53.00
9699;DHT22;10089;47.876;8.346;2022-07-22T13:07:41;31.10;51.80
9699;DHT22;10089;47.876;8.346;2022-07-22T13:10:08;30.10;52.40
9699;DHT22;10089;47.876;8.346;2022-07-22T13:12:34;30.80;52.30
9699;DHT22;10089;47.876;8.346;2022-07-22T13:15:00;31.20;54.10
9699;DHT22;10089;47.876;8.346;2022-07-22T13:17:26;31.30;53.40
9699;DHT22;10089;47.876;8.346;2022-07-22T13:19:52;31.10;52.60
9699;DHT22;10089;47.876;8.346;2022-07-22T13:22:17;31.30;52.60
9699;DHT22;10089;47.876;8.346;2022-07-22T13:24:43;31.20;51.80
9699;DHT22;10089;47.876;8.346;2022-07-22T13:27:09;30.90;52.60
9699;DHT22;10089;47.876;8.346;2022-07-22T13:29:35;31.10;53.30
9699;DHT22;10089;47.876;8.346;2022-07-22T13:32:00;30.40;53.80
9699;DHT22;10089;47.876;8.346;2022-07-22T13:34:26;31.00;53.90
9699;DHT22;10089;47.876;8.346;2022-07-22T13:36:52;30.40;54.60
9699;DHT22;10089;47.876;8.346;2022-07-22T13:39:18;30.60;54.70
9699;DHT22;10089;47.876;8.346;2022-07-22T13:41:43;30.80;54.70
9699;DHT22;10089;47.876;8.346;2022-07-22T13:44:09;31.60;53.80
9699;DHT22;10089;47.876;8.346;2022-07-22T13:46:36;31.50;53.20
9699;DHT22;10089;47.876;8.346;2022-07-22T13:49:02;31.50;53.00
9699;DHT22;10089;47.876;8.346;2022-07-22T13:51:28;31.30;54.30
9699;DHT22;10089;47.876;8.346;2022-07-22T13:53:54;31.50;53.50
9699;DHT22;10089;47.876;8.346;2022-07-22T13:56:20;31.60;54.10
9699;DHT22;10089;47.876;8.346;2022-07-22T13:58:45;31.50;53.40
9699;DHT22;10089;47.876;8.346;2022-07-22T14:01:12;31.70;54.40
9699;DHT22;10089;47.876;8.346;2022-07-22T14:03:38;31.40;53.00
9699;DHT22;10089;47.876;8.346;2022-07-22T14:06:04;31.10;53.90
9699;DHT22;10089;47.876;8.346;2022-07-22T14:08:31;31.40;53.20
9699;DHT22;10089;47.876;8.346;2022-07-22T14:10:57;30.70;54.10
9699;DHT22;10089;47.876;8.346;2022-07-22T14:13:24;31.10;53.60
9699;DHT22;10089;47.876;8.346;2022-07-22T14:15:49;31.00;53.00
9699;DHT22;10089;47.876;8.346;2022-07-22T14:18:15;30.70;52.30
9699;DHT22;10089;47.876;8.346;2022-07-22T14:20:41;30.70;51.90
9699;DHT22;10089;47.876;8.346;2022-07-22T14:23:08;30.60;52.50
9699;DHT22;10089;47.876;8.346;2022-07-22T14:25:37;31.20;51.90
9699;DHT22;10089;47.876;8.346;2022-07-22T14:28:05;31.30;50.50
9699;DHT22;10089;47.876;8.346;2022-07-22T14:30:31;31.50;51.30
9699;DHT22;10089;47.876;8.346;2022-07-22T14:32:58;31.20;50.60
9699;DHT22;10089;47.876;8.346;2022-07-22T14:35:24;31.20;51.30
9699;DHT22;10089;47.876;8.346;2022-07-22T14:37:50;31.60;50.90
9699;DHT22;10089;47.876;8.346;2022-07-22T14:40:16;32.00;49.50
9699;DHT22;10089;47.876;8.346;2022-07-22T14:42:42;32.10;40.00
9699;DHT22;10089;47.876;8.346;2022-07-22T14:45:08;32.30;38.10
9699;DHT22;10089;47.876;8.346;2022-07-22T14:47:38;32.20;38.70
9699;DHT22;10089;47.876;8.346;2022-07-22T14:50:07;32.00;36.70
9699;DHT22;10089;47.876;8.346;2022-07-22T14:52:33;31.80;37.30
9699;DHT22;10089;47.876;8.346;2022-07-22T14:54:58;31.90;37.80
9699;DHT22;10089;47.876;8.346;2022-07-22T14:57:25;32.40;42.40
9699;DHT22;10089;47.876;8.346;2022-07-22T14:59:51;32.30;54.20
9699;DHT22;10089;47.876;8.346;2022-07-22T15:02:18;31.60;57.20
9699;DHT22;10089;47.876;8.346;2022-07-22T15:04:46;32.10;56.70
9699;DHT22;10089;47.876;8.346;2022-07-22T15:07:11;32.00;55.70
9699;DHT22;10089;47.876;8.346;2022-07-22T15:09:37;31.70;55.90
9699;DHT22;10089;47.876;8.346;2022-07-22T15:12:03;31.40;54.90
9699;DHT22;10089;47.876;8.346;2022-07-22T15:14:29;31.10;51.80
9699;DHT22;10089;47.876;8.346;2022-07-22T15:16:55;31.20;50.40
9699;DHT22;10089;47.876;8.346;2022-07-22T15:19:21;31.10;48.50
9699;DHT22;10089;47.876;8.346;2022-07-22T15:21:46;31.30;48.40
9699;DHT22;10089;47.876;8.346;2022-07-22T15:24:13;31.50;50.40
9699;DHT22;10089;47.876;8.346;2022-07-22T15:26:38;31.70;47.20
9699;DHT22;10089;47.876;8.346;2022-07-22T15:29:04;31.60;48.50
9699;DHT22;10089;47.876;8.346;2022-07-22T15:31:30;31.40;48.20
9699;DHT22;10089;47.876;8.346;2022-07-22T15:33:58;31.30;50.50
9699;DHT22;10089;47.876;8.346;2022-07-22T15:36:23;31.20;53.00
9699;DHT22;10089;47.876;8.346;2022-07-22T15:38:50;31.00;53.90
9699;DHT22;10089;47.876;8.346;2022-07-22T15:41:16;31.00;54.00
9699;DHT22;10089;47.876;8.346;2022-07-22T15:43:42;30.90;52.80
9699;DHT22;10089;47.876;8.346;2022-07-22T15:46:09;30.80;50.20
9699;DHT22;10089;47.876;8.346;2022-07-22T15:48:35;31.00;52.80
9699;DHT22;10089;47.876;8.346;2022-07-22T15:51:01;30.80;56.40
9699;DHT22;10089;47.876;8.346;2022-07-22T15:53:27;30.80;56.40
9699;DHT22;10089;47.876;8.346;2022-07-22T15:55:53;30.70;57.30
9699;DHT22;10089;47.876;8.346;2022-07-22T15:58:19;30.60;58.00
9699;DHT22;10089;47.876;8.346;2022-07-22T16:01:03;30.40;57.60
9699;DHT22;10089;47.876;8.346;2022-07-22T16:03:29;30.40;57.00
9699;DHT22;10089;47.876;8.346;2022-07-22T16:05:55;30.40;56.90
9699;DHT22;10089;47.876;8.346;2022-07-22T16:08:21;30.40;57.10